Time;durP1;ratioP1;P1;durP2;ratioP2;P2;SDS_P1;SDS_P2;PMS_P1;PMS_P2;Temp;Humidity;BMP_temperature;BMP_pressure;BME280_temperature;BME280_humidity;BME280_pressure;Samples;Min_cycle;Max_cycle;Signal;HPM_P1;HPM_P2
2021/04/09 00:01:27;;;;;;;9.07;6.10;;;;;;;;;;5013948;28;20026;-84
2021/04/09 00:03:53;;;;;;;14.15;6.68;;;;;;;;;;5013748;28;20113;-80
2021/04/09 00:06:18;;;;;;;9.80;6.32;;;;;;;;;;5014188;28;20345;-82
2021/04/09 00:08:43;;;;;;;9.52;6.60;;;;;;;;;;4996954;28;20022;-81
2021/04/09 00:11:08;;;;;;;11.55;6.30;;;;;;;;;;5013844;28;20049;-83
2021/04/09 00:13:34;;;;;;;13.68;7.45;;;;;;;;;;5013813;28;20426;-80
2021/04/09 00:15:59;;;;;;;14.23;7.18;;;;;;;;;;5013851;28;20018;-83
2021/04/09 00:18:24;;;;;;;13.95;6.97;;;;;;;;;;5013744;28;20018;-83
2021/04/09 00:20:49;;;;;;;12.68;7.25;;;;;;;;;;5013754;28;20014;-80
2021/04/09 00:23:14;;;;;;;9.57;6.75;;;;;;;;;;5013755;28;20021;-83
2021/04/09 00:25:40;;;;;;;11.30;6.75;;;;;;;;;;5013698;28;20037;-81
2021/04/09 00:28:05;;;;;;;9.05;7.20;;;;;;;;;;5013656;28;20018;-83
2021/04/09 00:30:30;;;;;;;13.23;7.32;;;;;;;;;;5013705;28;20032;-83
2021/04/09 00:32:55;;;;;;;;;;;;;;;;;;5014092;28;20022;-83
2021/04/09 00:35:23;;;;;;;10.07;7.40;;;;;;;;;;5013710;28;19967;-83
2021/04/09 00:37:49;;;;;;;10.45;7.40;;;;;;;;;;5013670;28;20252;-81
2021/04/09 00:40:15;;;;;;;12.20;7.70;;;;;;;;;;5013648;28;20030;-83
2021/04/09 00:42:40;;;;;;;13.93;7.70;;;;;;;;;;5015758;28;20022;-82
2021/04/09 00:45:09;;;;;;;13.27;8.15;;;;;;;;;;5017241;28;20053;-83
2021/04/09 00:47:34;;;;;;;11.68;7.60;;;;;;;;;;5016884;28;20041;-83
2021/04/09 00:50:02;;;;;;;12.63;7.50;;;;;;;;;;5017048;28;20018;-83
2021/04/09 00:52:35;;;;;;;10.63;7.63;;;;;;;;;;5016977;28;20018;-83
2021/04/09 00:55:00;;;;;;;13.65;7.95;;;;;;;;;;5016869;28;20021;-83
2021/04/09 00:57:26;;;;;;;8.40;6.97;;;;;;;;;;4999538;28;20114;-83
2021/04/09 00:59:52;;;;;;;10.95;7.68;;;;;;;;;;5016661;28;20347;-83
2021/04/09 01:02:17;;;;;;;11.32;8.05;;;;;;;;;;5015769;28;20026;-83
2021/04/09 01:04:42;;;;;;;11.90;7.53;;;;;;;;;;5016662;28;20079;-83
2021/04/09 01:07:07;;;;;;;;;;;;;;;;;;5017242;28;20105;-83
2021/04/09 01:09:40;;;;;;;12.13;8.02;;;;;;;;;;5016690;28;19909;-80
2021/04/09 01:12:11;;;;;;;15.30;8.48;;;;;;;;;;5016559;28;20451;-81
2021/04/09 01:14:36;;;;;;;15.25;8.18;;;;;;;;;;5016538;28;20022;-80
2021/04/09 01:17:16;;;;;;;17.90;8.10;;;;;;;;;;5016552;28;20036;-80
2021/04/09 01:19:44;;;;;;;12.10;7.90;;;;;;;;;;5016340;28;20025;-83
2021/04/09 01:22:11;;;;;;;15.10;7.85;;;;;;;;;;5016420;28;20401;-83
2021/04/09 01:24:36;;;;;;;11.40;7.38;;;;;;;;;;5019420;28;20029;-83
2021/04/09 01:27:22;;;;;;;13.70;7.97;;;;;;;;;;5035733;28;20086;-83
2021/04/09 01:29:48;;;;;;;12.93;8.45;;;;;;;;;;5031344;28;20029;-83
2021/04/09 01:32:13;;;;;;;;;;;;;;;;;;5034237;28;20396;-83
2021/04/09 01:34:40;;;;;;;17.98;8.05;;;;;;;;;;5031178;28;20257;-83
2021/04/09 01:37:14;;;;;;;11.82;7.30;;;;;;;;;;5035910;28;20037;-83
2021/04/09 01:40:02;;;;;;;14.77;7.35;;;;;;;;;;5035853;28;20445;-80
2021/04/09 01:42:29;;;;;;;12.70;8.35;;;;;;;;;;5027663;28;20033;-79
2021/04/09 01:44:55;;;;;;;10.75;7.15;;;;;;;;;;5035681;28;20048;-79
2021/04/09 01:47:22;;;;;;;14.27;7.80;;;;;;;;;;5035595;28;20156;-79
2021/04/09 01:49:48;;;;;;;13.02;7.30;;;;;;;;;;5018331;28;20028;-83
2021/04/09 01:52:16;;;;;;;14.23;7.53;;;;;;;;;;5024562;28;20566;-80
2021/04/09 01:54:43;;;;;;;11.73;7.03;;;;;;;;;;5025101;28;20021;-80
2021/04/09 01:57:11;;;;;;;12.27;7.07;;;;;;;;;;5007404;28;20070;-80
2021/04/09 01:59:38;;;;;;;12.98;7.05;;;;;;;;;;5024282;28;20121;-80
2021/04/09 02:02:03;;;;;;;15.30;7.70;;;;;;;;;;5021384;28;20339;-80
2021/04/09 02:04:29;;;;;;;13.55;8.20;;;;;;;;;;5023945;28;20032;-83
2021/04/09 02:06:55;;;;;;;16.20;7.35;;;;;;;;;;5030344;28;20010;-80
2021/04/09 02:09:24;;;;;;;13.38;7.57;;;;;;;;;;5035310;28;20052;-83
2021/04/09 02:11:50;;;;;;;12.40;7.80;;;;;;;;;;5035121;28;20017;-84
2021/04/09 02:14:15;;;;;;;9.98;7.30;;;;;;;;;;5035235;28;20028;-83
2021/04/09 02:16:46;;;;;;;12.02;7.57;;;;;;;;;;5035027;28;20342;-83
2021/04/09 02:19:11;;;;;;;13.38;7.38;;;;;;;;;;5035076;28;20126;-83
2021/04/09 02:21:37;;;;;;;13.20;7.80;;;;;;;;;;5035067;28;20461;-83
2021/04/09 02:24:05;;;;;;;14.77;7.38;;;;;;;;;;5034945;28;20017;-83
2021/04/09 02:26:31;;;;;;;12.88;7.65;;;;;;;;;;5034970;28;20459;-83
2021/04/09 02:28:59;;;;;;;13.65;7.80;;;;;;;;;;5017366;28;20048;-83
2021/04/09 02:31:25;;;;;;;14.27;7.57;;;;;;;;;;5017441;28;20021;-83
2021/04/09 02:33:50;;;;;;;13.18;7.68;;;;;;;;;;5034796;28;20032;-83
2021/04/09 02:36:23;;;;;;;14.85;7.95;;;;;;;;;;5034777;28;20442;-83
2021/04/09 02:38:52;;;;;;;12.43;7.88;;;;;;;;;;5034720;28;20100;-80
2021/04/09 02:41:19;;;;;;;11.73;7.63;;;;;;;;;;5034937;28;20025;-80
2021/04/09 02:43:47;;;;;;;15.40;8.25;;;;;;;;;;5017099;28;20025;-80
2021/04/09 02:46:20;;;;;;;17.52;7.90;;;;;;;;;;5034375;28;20068;-80
2021/04/09 02:48:55;;;;;;;11.43;7.93;;;;;;;;;;5017265;28;20063;-80
2021/04/09 02:51:22;;;;;;;10.77;8.13;;;;;;;;;;5034513;28;20029;-80
2021/04/09 02:53:48;;;;;;;18.20;8.32;;;;;;;;;;5034470;28;20032;-80
2021/04/09 02:56:15;;;;;;;11.52;8.65;;;;;;;;;;5034371;28;20022;-80
2021/04/09 02:58:43;;;;;;;17.85;8.10;;;;;;;;;;5034232;28;20389;-80
2021/04/09 03:01:08;;;;;;;14.30;8.25;;;;;;;;;;5016907;28;20025;-80
2021/04/09 03:03:35;;;;;;;13.40;7.90;;;;;;;;;;5034162;28;20025;-81
2021/04/09 03:06:00;;;;;;;12.13;7.70;;;;;;;;;;5034046;28;20014;-81
2021/04/09 03:08:28;;;;;;;17.48;8.25;;;;;;;;;;5034219;28;20086;-83
2021/04/09 03:10:53;;;;;;;13.90;8.82;;;;;;;;;;5034185;28;20059;-83
2021/04/09 03:13:18;;;;;;;13.02;7.95;;;;;;;;;;5034146;28;20064;-83
2021/04/09 03:15:46;;;;;;;13.38;8.27;;;;;;;;;;5034123;28;20071;-83
2021/04/09 03:18:12;;;;;;;12.45;8.43;;;;;;;;;;5034023;28;20486;-80
2021/04/09 03:20:37;;;;;;;14.65;8.27;;;;;;;;;;5033930;28;20035;-79
2021/04/09 03:23:03;;;;;;;11.57;7.90;;;;;;;;;;5034389;28;20109;-83
2021/04/09 03:25:28;;;;;;;15.23;8.80;;;;;;;;;;5033993;28;20029;-83
2021/04/09 03:27:56;;;;;;;12.30;7.80;;;;;;;;;;5033844;28;20026;-83
2021/04/09 03:30:22;;;;;;;11.70;7.45;;;;;;;;;;5034239;28;20021;-83
2021/04/09 03:32:48;;;;;;;14.10;7.50;;;;;;;;;;5033995;28;20095;-83
2021/04/09 03:35:13;;;;;;;10.88;7.13;;;;;;;;;;5033980;28;20028;-83
2021/04/09 03:37:41;;;;;;;13.90;7.18;;;;;;;;;;5004804;28;20041;-83
2021/04/09 03:40:09;;;;;;;14.02;7.70;;;;;;;;;;5014208;28;20068;-83
2021/04/09 03:42:34;;;;;;;9.43;7.30;;;;;;;;;;5014077;28;20092;-83
2021/04/09 03:45:00;;;;;;;12.30;7.50;;;;;;;;;;5001324;28;20120;-83
2021/04/09 03:47:25;;;;;;;10.85;7.75;;;;;;;;;;5032883;28;20037;-83
2021/04/09 03:49:53;;;;;;;13.63;7.55;;;;;;;;;;5031140;28;20033;-83
2021/04/09 03:52:18;;;;;;;12.77;7.53;;;;;;;;;;5031629;28;20021;-74
2021/04/09 03:54:46;;;;;;;10.48;7.10;;;;;;;;;;5033260;28;20038;-75
2021/04/09 03:57:11;;;;;;;13.68;7.80;;;;;;;;;;5026717;28;20506;-74
2021/04/09 03:59:36;;;;;;;14.10;7.20;;;;;;;;;;5032408;28;20053;-74
2021/04/09 04:02:01;;;;;;;13.95;7.10;;;;;;;;;;5031786;28;20021;-74
2021/04/09 04:04:29;;;;;;;9.50;6.97;;;;;;;;;;5032871;28;20017;-74
2021/04/09 04:06:55;;;;;;;13.20;7.70;;;;;;;;;;5016112;28;20028;-74
2021/04/09 04:09:20;;;;;;;10.85;6.60;;;;;;;;;;5033176;28;20353;-74
2021/04/09 04:11:45;;;;;;;11.10;7.53;;;;;;;;;;5032827;28;20143;-74
2021/04/09 04:14:12;;;;;;;;;;;;;;;;;;5033177;28;20457;-74
2021/04/09 04:16:38;;;;;;;10.40;7.18;;;;;;;;;;5031623;28;19909;-74
2021/04/09 04:19:03;;;;;;;9.77;6.82;;;;;;;;;;5036556;28;20512;-74
2021/04/09 04:21:28;;;;;;;;;;;;;;;;;;5037009;28;20014;-75
2021/04/09 04:23:54;;;;;;;11.93;7.78;;;;;;;;;;5036564;28;19916;-74
2021/04/09 04:26:21;;;;;;;12.90;7.18;;;;;;;;;;5033145;28;20435;-74
2021/04/09 04:28:46;;;;;;;9.18;7.20;;;;;;;;;;5032768;28;20025;-75
2021/04/09 04:31:16;;;;;;;10.15;7.18;;;;;;;;;;5037137;28;20040;-74
2021/04/09 04:33:42;;;;;;;12.43;7.45;;;;;;;;;;5037079;28;20021;-75
2021/04/09 04:36:09;;;;;;;13.93;7.43;;;;;;;;;;5029668;28;20025;-75
2021/04/09 04:38:35;;;;;;;11.32;7.53;;;;;;;;;;5013422;28;20029;-75
2021/04/09 04:41:00;;;;;;;8.75;7.05;;;;;;;;;;5036903;28;20414;-75
2021/04/09 04:43:25;;;;;;;11.07;7.45;;;;;;;;;;5019563;28;20021;-75
2021/04/09 04:45:51;;;;;;;9.80;7.20;;;;;;;;;;5004002;28;20058;-74
2021/04/09 04:48:16;;;;;;;12.82;7.88;;;;;;;;;;4997412;28;20069;-75
2021/04/09 04:50:41;;;;;;;13.30;7.25;;;;;;;;;;4997416;28;20027;-75
2021/04/09 04:53:07;;;;;;;;;;;;;;;;;;4997822;28;20026;-75
2021/04/09 04:55:32;;;;;;;15.90;7.90;;;;;;;;;;4997394;28;19914;-75
2021/04/09 04:57:57;;;;;;;13.63;7.65;;;;;;;;;;4997337;28;20024;-75
2021/04/09 05:00:23;;;;;;;10.88;7.22;;;;;;;;;;4997288;28;20045;-76
2021/04/09 05:02:48;;;;;;;10.82;6.95;;;;;;;;;;4997380;28;20383;-76
2021/04/09 05:05:13;;;;;;;11.48;7.35;;;;;;;;;;5002586;28;20037;-75
2021/04/09 05:07:39;;;;;;;17.42;8.25;;;;;;;;;;5007206;28;20127;-75
2021/04/09 05:10:07;;;;;;;11.35;7.20;;;;;;;;;;4979879;28;20439;-75
2021/04/09 05:12:32;;;;;;;16.83;7.78;;;;;;;;;;4998411;28;20022;-75
2021/04/09 05:14:57;;;;;;;11.55;7.07;;;;;;;;;;4993722;28;20029;-75
2021/04/09 05:17:23;;;;;;;;;;;;;;;;;;5016657;28;20068;-75
2021/04/09 05:19:48;;;;;;;12.07;7.38;;;;;;;;;;4995631;28;19917;-75
2021/04/09 05:22:13;;;;;;;13.20;7.50;;;;;;;;;;5011852;28;20037;-76
2021/04/09 05:24:38;;;;;;;11.35;7.43;;;;;;;;;;4990461;28;20097;-75
2021/04/09 05:27:04;;;;;;;11.20;7.45;;;;;;;;;;4989601;28;20109;-75
2021/04/09 05:29:30;;;;;;;12.45;7.40;;;;;;;;;;5007588;28;20026;-75
2021/04/09 05:31:55;;;;;;;12.23;7.55;;;;;;;;;;5016138;28;20018;-75
2021/04/09 05:34:20;;;;;;;13.98;7.82;;;;;;;;;;5001068;28;20030;-75
2021/04/09 05:36:45;;;;;;;11.77;7.82;;;;;;;;;;4996150;28;20422;-75
2021/04/09 05:39:11;;;;;;;14.55;7.68;;;;;;;;;;5007001;28;20030;-74
2021/04/09 05:41:36;;;;;;;11.18;7.75;;;;;;;;;;4990693;28;20049;-75
2021/04/09 05:44:01;;;;;;;12.05;7.63;;;;;;;;;;5006108;28;20104;-74
2021/04/09 05:46:29;;;;;;;;;;;;;;;;;;5024755;28;20061;-75
2021/04/09 05:48:54;;;;;;;;;;;;;;;;;;5017150;28;19913;-75
2021/04/09 05:51:19;;;;;;;12.80;7.53;;;;;;;;;;5015728;28;19972;-75
2021/04/09 05:53:47;;;;;;;12.38;7.80;;;;;;;;;;5015556;28;20018;-75
2021/04/09 05:56:12;;;;;;;16.80;7.70;;;;;;;;;;5015934;28;20022;-75
2021/04/09 05:58:37;;;;;;;13.32;7.28;;;;;;;;;;5015725;28;20088;-75
2021/04/09 06:01:02;;;;;;;;;;;;;;;;;;4998915;28;20014;-75
2021/04/09 06:03:30;;;;;;;10.63;7.03;;;;;;;;;;5024232;28;19920;-75
2021/04/09 06:05:55;;;;;;;11.00;6.97;;;;;;;;;;5033622;28;20033;-75
2021/04/09 06:08:20;;;;;;;9.25;6.35;;;;;;;;;;5031928;28;20366;-75
2021/04/09 06:10:45;;;;;;;10.50;6.63;;;;;;;;;;5035113;28;20048;-76
2021/04/09 06:13:14;;;;;;;13.85;7.60;;;;;;;;;;5035168;28;20021;-74
2021/04/09 06:15:40;;;;;;;13.85;7.45;;;;;;;;;;5017612;28;20454;-75
2021/04/09 06:18:05;;;;;;;13.07;9.13;;;;;;;;;;5035024;28;20037;-75
2021/04/09 06:20:33;;;;;;;12.32;7.20;;;;;;;;;;5034881;28;20034;-74
2021/04/09 06:22:58;;;;;;;12.82;7.50;;;;;;;;;;5034899;28;20446;-74
2021/04/09 06:25:26;;;;;;;12.52;7.05;;;;;;;;;;5034928;28;20028;-74
2021/04/09 06:27:52;;;;;;;8.63;6.18;;;;;;;;;;5034926;28;20064;-74
2021/04/09 06:30:19;;;;;;;7.78;6.60;;;;;;;;;;5017401;28;20052;-74
2021/04/09 06:32:47;;;;;;;9.98;6.13;;;;;;;;;;5033236;28;20029;-74
2021/04/09 06:35:13;;;;;;;16.10;7.03;;;;;;;;;;5034676;28;20021;-76
2021/04/09 06:37:38;;;;;;;10.48;6.00;;;;;;;;;;5034710;28;20018;-74
2021/04/09 06:40:05;;;;;;;12.15;6.88;;;;;;;;;;5027897;28;20029;-75
2021/04/09 06:42:30;;;;;;;10.65;6.97;;;;;;;;;;5003250;28;20034;-75
2021/04/09 06:44:57;;;;;;;12.45;7.30;;;;;;;;;;5021335;28;20021;-75
2021/04/09 06:47:22;;;;;;;11.52;7.47;;;;;;;;;;5022747;28;20042;-75
2021/04/09 06:49:47;;;;;;;15.45;7.95;;;;;;;;;;5024375;28;20029;-75
2021/04/09 06:52:13;;;;;;;10.77;6.70;;;;;;;;;;5031696;28;20354;-76
2021/04/09 06:54:40;;;;;;;11.02;7.10;;;;;;;;;;5025962;28;20026;-75
2021/04/09 06:57:06;;;;;;;10.23;6.22;;;;;;;;;;5001158;28;20108;-75
2021/04/09 06:59:32;;;;;;;9.77;6.70;;;;;;;;;;5008137;28;20474;-75
2021/04/09 07:02:00;;;;;;;16.35;7.68;;;;;;;;;;5016551;28;20069;-75
2021/04/09 07:04:44;;;;;;;11.02;6.85;;;;;;;;;;5026085;28;20026;-75
2021/04/09 07:07:14;;;;;;;13.23;6.60;;;;;;;;;;4998947;28;20484;-76
2021/04/09 07:09:45;;;;;;;11.43;6.45;;;;;;;;;;5026483;28;20022;-75
2021/04/09 07:12:23;;;;;;;12.13;6.22;;;;;;;;;;5010260;28;20034;-75
2021/04/09 07:14:49;;;;;;;10.57;6.30;;;;;;;;;;5028043;28;20021;-75
2021/04/09 07:17:35;;;;;;;18.73;6.95;;;;;;;;;;5009753;28;20017;-75
2021/04/09 07:20:17;;;;;;;14.63;7.20;;;;;;;;;;5033924;28;20033;-76
2021/04/09 07:22:44;;;;;;;14.93;6.95;;;;;;;;;;5028252;28;20341;-75
2021/04/09 07:25:11;;;;;;;13.35;7.38;;;;;;;;;;5027588;28;20026;-76
2021/04/09 07:27:40;;;;;;;17.35;6.97;;;;;;;;;;5033401;28;20017;-75
2021/04/09 07:30:06;;;;;;;13.30;7.45;;;;;;;;;;5017527;28;20010;-75
2021/04/09 07:32:32;;;;;;;14.07;7.15;;;;;;;;;;5033502;28;20450;-76
2021/04/09 07:35:04;;;;;;;9.15;6.53;;;;;;;;;;5033668;28;20021;-76
2021/04/09 07:37:31;;;;;;;14.27;7.85;;;;;;;;;;5029402;28;20037;-75
2021/04/09 07:39:56;;;;;;;12.98;7.80;;;;;;;;;;5031880;28;20021;-76
2021/04/09 07:42:31;;;;;;;12.63;7.05;;;;;;;;;;5031339;28;20013;-76
2021/04/09 07:45:00;;;;;;;14.77;7.78;;;;;;;;;;5023065;28;20021;-75
2021/04/09 07:47:27;;;;;;;16.35;8.70;;;;;;;;;;5004864;28;20045;-76
2021/04/09 07:50:03;;;;;;;12.45;7.30;;;;;;;;;;5027070;28;20438;-76
2021/04/09 07:52:37;;;;;;;16.48;7.53;;;;;;;;;;5028303;28;20044;-72
2021/04/09 07:55:10;;;;;;;10.27;6.72;;;;;;;;;;5029937;28;20022;-71
2021/04/09 07:57:38;;;;;;;14.50;6.75;;;;;;;;;;5031652;28;20450;-71
2021/04/09 08:00:15;;;;;;;15.18;7.63;;;;;;;;;;5030048;28;20100;-74
2021/04/09 08:02:43;;;;;;;16.13;7.22;;;;;;;;;;5017290;28;20033;-74
2021/04/09 08:05:10;;;;;;;10.88;6.45;;;;;;;;;;5035274;28;20083;-74
2021/04/09 08:07:36;;;;;;;10.95;6.05;;;;;;;;;;5037343;28;20022;-74
2021/04/09 08:10:02;;;;;;;13.00;6.60;;;;;;;;;;5037421;28;20028;-74
2021/04/09 08:12:27;;;;;;;12.85;6.22;;;;;;;;;;5036699;28;20032;-74
2021/04/09 08:14:53;;;;;;;10.20;6.60;;;;;;;;;;5037081;28;20032;-74
2021/04/09 08:17:19;;;;;;;14.88;7.35;;;;;;;;;;5037228;28;20075;-74
2021/04/09 08:19:46;;;;;;;11.32;7.10;;;;;;;;;;5037388;28;20044;-74
2021/04/09 08:22:12;;;;;;;12.32;6.70;;;;;;;;;;5037318;28;20021;-74
2021/04/09 08:24:37;;;;;;;11.10;6.63;;;;;;;;;;5037232;28;20032;-73
2021/04/09 08:27:03;;;;;;;12.65;6.50;;;;;;;;;;5036924;28;20021;-74
2021/04/09 08:29:30;;;;;;;12.77;6.38;;;;;;;;;;5037034;28;20029;-74
2021/04/09 08:31:55;;;;;;;13.43;6.80;;;;;;;;;;5031548;28;20055;-75
2021/04/09 08:34:21;;;;;;;10.95;6.32;;;;;;;;;;5019365;28;20441;-75
2021/04/09 08:36:47;;;;;;;17.05;6.78;;;;;;;;;;5036844;28;20028;-75
2021/04/09 08:39:14;;;;;;;12.40;5.93;;;;;;;;;;5036565;28;20044;-75
2021/04/09 08:41:44;;;;;;;13.60;6.47;;;;;;;;;;5030694;28;20026;-75
2021/04/09 08:44:12;;;;;;;10.63;6.35;;;;;;;;;;5005589;28;20417;-75
2021/04/09 08:46:41;;;;;;;10.55;5.80;;;;;;;;;;5032060;28;20041;-74
2021/04/09 08:49:07;;;;;;;16.70;6.10;;;;;;;;;;5029914;28;20021;-74
2021/04/09 08:51:35;;;;;;;10.60;5.22;;;;;;;;;;5010703;28;20025;-75
2021/04/09 08:54:19;;;;;;;9.85;5.70;;;;;;;;;;5013419;28;20036;-74
2021/04/09 08:56:44;;;;;;;9.63;5.55;;;;;;;;;;5019012;28;20026;-75
2021/04/09 08:59:09;;;;;;;8.00;5.78;;;;;;;;;;5036586;28;20322;-73
2021/04/09 09:01:37;;;;;;;13.90;5.40;;;;;;;;;;5036521;28;20021;-73
2021/04/09 09:04:21;;;;;;;8.32;4.95;;;;;;;;;;5035886;28;20127;-73
2021/04/09 09:06:47;;;;;;;8.68;3.88;;;;;;;;;;5035881;28;20028;-74
2021/04/09 09:09:26;;;;;;;6.88;3.97;;;;;;;;;;5022799;28;20018;-74
2021/04/09 09:11:52;;;;;;;7.07;4.40;;;;;;;;;;5015664;28;20346;-74
2021/04/09 09:14:33;;;;;;;10.55;4.10;;;;;;;;;;5029973;28;20013;-74
2021/04/09 09:17:18;;;;;;;8.27;3.92;;;;;;;;;;5025368;28;20084;-73
2021/04/09 09:19:48;;;;;;;5.18;3.80;;;;;;;;;;5032090;28;20021;-73
2021/04/09 09:22:16;;;;;;;6.32;4.40;;;;;;;;;;5004197;28;20021;-75
2021/04/09 09:25:00;;;;;;;6.38;3.70;;;;;;;;;;5027170;28;20427;-74
2021/04/09 09:27:44;;;;;;;5.22;3.90;;;;;;;;;;5030892;28;20473;-75
2021/04/09 09:30:30;;;;;;;7.53;4.88;;;;;;;;;;5033242;28;20101;-74
2021/04/09 09:33:28;;;;;;;6.28;3.85;;;;;;;;;;5027310;28;20022;-74
2021/04/09 09:35:58;;;;;;;7.30;4.10;;;;;;;;;;4984983;28;20410;-75
2021/04/09 09:38:44;;;;;;;6.93;4.35;;;;;;;;;;5028459;28;20013;-75
2021/04/09 09:41:12;;;;;;;6.68;4.32;;;;;;;;;;5015689;28;20036;-75
2021/04/09 09:43:38;;;;;;;7.00;4.38;;;;;;;;;;5012649;28;20060;-76
2021/04/09 09:46:03;;;;;;;6.40;3.90;;;;;;;;;;5035387;28;20118;-75
2021/04/09 09:48:28;;;;;;;5.38;3.65;;;;;;;;;;5028565;28;20018;-76
2021/04/09 09:50:53;;;;;;;5.30;3.90;;;;;;;;;;5015912;28;20041;-76
2021/04/09 09:53:19;;;;;;;5.28;3.63;;;;;;;;;;5026372;28;20438;-75
2021/04/09 09:55:46;;;;;;;6.35;3.10;;;;;;;;;;5035144;28;20369;-75
2021/04/09 09:58:17;;;;;;;8.20;4.10;;;;;;;;;;5035030;28;20033;-75
2021/04/09 10:01:01;;;;;;;6.65;3.67;;;;;;;;;;5035249;28;20035;-75
2021/04/09 10:03:29;;;;;;;7.57;3.53;;;;;;;;;;5020199;28;20060;-75
2021/04/09 10:05:57;;;;;;;8.00;3.70;;;;;;;;;;5015140;28;20055;-75
2021/04/09 10:08:23;;;;;;;8.07;3.60;;;;;;;;;;5029031;28;20508;-75
2021/04/09 10:10:49;;;;;;;9.77;3.22;;;;;;;;;;5025421;28;20028;-75
2021/04/09 10:13:35;;;;;;;6.35;3.50;;;;;;;;;;5022654;28;20022;-76
2021/04/09 10:16:13;;;;;;;6.57;3.70;;;;;;;;;;5030934;28;20125;-75
2021/04/09 10:18:41;;;;;;;8.90;3.70;;;;;;;;;;5024069;28;20057;-76
2021/04/09 10:21:17;;;;;;;5.03;3.45;;;;;;;;;;5027121;28;20104;-76
2021/04/09 10:23:43;;;;;;;6.72;3.60;;;;;;;;;;5033804;28;20021;-76
2021/04/09 10:26:13;;;;;;;6.53;3.47;;;;;;;;;;4997720;28;20030;-76
2021/04/09 10:28:43;;;;;;;7.28;3.38;;;;;;;;;;5023012;28;20025;-76
2021/04/09 10:31:11;;;;;;;7.65;2.85;;;;;;;;;;5021950;28;20013;-75
2021/04/09 10:33:37;;;;;;;5.20;3.33;;;;;;;;;;5030767;28;20021;-74
2021/04/09 10:36:22;;;;;;;7.70;3.28;;;;;;;;;;5018016;28;20021;-75
2021/04/09 10:38:49;;;;;;;6.38;3.38;;;;;;;;;;5028012;28;20017;-76
2021/04/09 10:41:33;;;;;;;5.00;3.20;;;;;;;;;;5008281;28;20025;-76
2021/04/09 10:43:58;;;;;;;7.43;3.20;;;;;;;;;;5025023;28;20032;-76
2021/04/09 10:46:25;;;;;;;5.43;2.90;;;;;;;;;;5023574;28;20124;-76
2021/04/09 10:48:50;;;;;;;5.68;3.20;;;;;;;;;;5029732;28;20492;-77
2021/04/09 10:51:16;;;;;;;5.37;3.00;;;;;;;;;;5012676;28;20022;-76
2021/04/09 10:53:44;;;;;;;5.95;2.85;;;;;;;;;;5020705;28;20723;-76
2021/04/09 10:56:10;;;;;;;4.57;2.78;;;;;;;;;;5028798;28;20026;-76
2021/04/09 10:58:42;;;;;;;4.97;3.00;;;;;;;;;;5020890;28;20064;-76
2021/04/09 11:01:08;;;;;;;5.88;3.00;;;;;;;;;;5020262;28;20033;-77
2021/04/09 11:03:36;;;;;;;5.25;2.97;;;;;;;;;;5002555;28;20072;-76
2021/04/09 11:06:04;;;;;;;6.90;2.90;;;;;;;;;;5022653;28;20342;-76
2021/04/09 11:08:40;;;;;;;5.55;2.78;;;;;;;;;;5019638;28;20025;-77
2021/04/09 11:11:07;;;;;;;6.25;2.85;;;;;;;;;;5018021;28;20018;-76
2021/04/09 11:13:33;;;;;;;7.18;2.50;;;;;;;;;;5018004;28;20402;-77
2021/04/09 11:15:58;;;;;;;4.25;2.75;;;;;;;;;;5011466;28;20017;-76
2021/04/09 11:18:43;;;;;;;4.47;2.90;;;;;;;;;;5026525;28;20041;-76
2021/04/09 11:21:09;;;;;;;4.60;3.05;;;;;;;;;;5025881;28;20022;-75
2021/04/09 11:23:38;;;;;;;6.18;2.70;;;;;;;;;;5006660;28;20463;-76
2021/04/09 11:26:15;;;;;;;5.43;2.90;;;;;;;;;;5006986;28;20018;-75
2021/04/09 11:28:40;;;;;;;4.97;2.60;;;;;;;;;;5006860;28;20018;-75
2021/04/09 11:31:06;;;;;;;5.13;2.60;;;;;;;;;;5024441;28;20014;-75
2021/04/09 11:33:34;;;;;;;4.05;2.67;;;;;;;;;;5029200;28;20284;-75
2021/04/09 11:36:19;;;;;;;6.07;2.78;;;;;;;;;;4997561;28;20018;-75
2021/04/09 11:38:45;;;;;;;5.22;2.63;;;;;;;;;;5001415;28;20102;-76
2021/04/09 11:41:26;;;;;;;7.78;2.92;;;;;;;;;;5023261;28;20384;-76
2021/04/09 11:43:52;;;;;;;5.15;2.72;;;;;;;;;;5021814;28;20093;-75
2021/04/09 11:46:35;;;;;;;5.53;2.60;;;;;;;;;;5004165;28;20562;-74
2021/04/09 11:49:07;;;;;;;4.22;2.38;;;;;;;;;;5018545;28;20485;-74
2021/04/09 11:51:34;;;;;;;5.07;2.50;;;;;;;;;;5029307;28;20033;-74
2021/04/09 11:54:06;;;;;;;4.97;2.42;;;;;;;;;;5016859;28;20376;-74
2021/04/09 11:56:38;;;;;;;5.97;2.78;;;;;;;;;;5031353;28;20033;-74
2021/04/09 11:59:29;;;;;;;7.00;2.70;;;;;;;;;;5022177;28;20045;-74
2021/04/09 12:01:54;;;;;;;4.95;2.67;;;;;;;;;;5022763;28;20030;-75
2021/04/09 12:04:38;;;;;;;3.37;2.30;;;;;;;;;;5033230;28;20503;-75
2021/04/09 12:07:04;;;;;;;3.40;2.22;;;;;;;;;;5021410;28;20026;-75
2021/04/09 12:09:30;;;;;;;3.42;2.40;;;;;;;;;;5028981;28;20148;-75
2021/04/09 12:11:55;;;;;;;3.42;2.38;;;;;;;;;;5016840;28;20072;-75
2021/04/09 12:14:50;;;;;;;3.95;2.58;;;;;;;;;;5032463;28;20032;-76
2021/04/09 12:17:16;;;;;;;4.05;2.28;;;;;;;;;;5015581;28;20029;-75
2021/04/09 12:19:43;;;;;;;4.72;2.15;;;;;;;;;;5028521;28;20099;-76
2021/04/09 12:22:09;;;;;;;5.85;2.42;;;;;;;;;;5021167;28;20029;-74
2021/04/09 12:24:34;;;;;;;5.70;2.20;;;;;;;;;;5002697;28;20080;-75
2021/04/09 12:26:59;;;;;;;4.77;2.10;;;;;;;;;;5013356;28;20026;-75
2021/04/09 12:29:25;;;;;;;2.55;1.90;;;;;;;;;;5013282;28;20257;-76
2021/04/09 12:31:50;;;;;;;3.78;2.30;;;;;;;;;;5013234;28;20034;-73
2021/04/09 12:34:18;;;;;;;3.43;2.00;;;;;;;;;;5013284;28;20018;-75
2021/04/09 12:36:46;;;;;;;7.13;2.20;;;;;;;;;;5013317;28;20443;-73
2021/04/09 12:39:12;;;;;;;5.03;2.53;;;;;;;;;;5016212;28;20386;-74
2021/04/09 12:41:37;;;;;;;3.50;2.28;;;;;;;;;;5016839;28;20399;-76
2021/04/09 12:44:06;;;;;;;7.10;2.87;;;;;;;;;;4999846;28;20045;-74
2021/04/09 12:46:32;;;;;;;6.32;2.40;;;;;;;;;;5016440;28;20137;-75
2021/04/09 12:48:57;;;;;;;4.53;2.50;;;;;;;;;;5016691;28;20399;-74
2021/04/09 12:51:22;;;;;;;3.05;2.20;;;;;;;;;;5016632;28;20025;-75
2021/04/09 12:53:48;;;;;;;4.70;2.50;;;;;;;;;;5016518;28;20029;-74
2021/04/09 12:56:17;;;;;;;3.60;2.40;;;;;;;;;;5016536;28;20013;-76
2021/04/09 12:58:42;;;;;;;3.10;2.10;;;;;;;;;;5016474;28;20443;-76
2021/04/09 13:01:10;;;;;;;4.18;2.38;;;;;;;;;;5016328;28;20037;-76
2021/04/09 13:03:35;;;;;;;5.57;2.17;;;;;;;;;;5016346;28;20018;-75
2021/04/09 13:06:01;;;;;;;4.40;2.70;;;;;;;;;;5016300;28;20424;-76
2021/04/09 13:08:26;;;;;;;5.22;2.35;;;;;;;;;;5016187;28;20014;-76
2021/04/09 13:10:51;;;;;;;3.95;2.40;;;;;;;;;;5016255;28;20022;-76
2021/04/09 13:13:16;;;;;;;5.63;2.47;;;;;;;;;;5016154;28;20014;-77
2021/04/09 13:15:42;;;;;;;3.00;2.40;;;;;;;;;;5016211;28;20260;-75
2021/04/09 13:18:07;;;;;;;5.53;2.85;;;;;;;;;;5014518;28;20030;-75
2021/04/09 13:20:32;;;;;;;3.60;2.17;;;;;;;;;;5030536;28;20021;-75
2021/04/09 13:23:00;;;;;;;4.75;2.20;;;;;;;;;;5018236;28;20276;-75
2021/04/09 13:25:27;;;;;;;3.92;2.08;;;;;;;;;;5035136;28;20032;-75
2021/04/09 13:27:53;;;;;;;8.38;2.65;;;;;;;;;;5035426;28;20017;-75
2021/04/09 13:30:18;;;;;;;4.43;2.17;;;;;;;;;;5035744;28;20022;-75
2021/04/09 13:32:46;;;;;;;4.72;2.75;;;;;;;;;;5035616;28;20294;-75
2021/04/09 13:35:11;;;;;;;3.50;2.67;;;;;;;;;;5035687;28;20478;-76
2021/04/09 13:37:36;;;;;;;4.50;2.40;;;;;;;;;;5035794;28;20130;-76
2021/04/09 13:40:04;;;;;;;5.70;2.50;;;;;;;;;;5035516;28;20021;-76
2021/04/09 13:42:29;;;;;;;6.10;2.50;;;;;;;;;;5035395;28;20033;-76
2021/04/09 13:44:55;;;;;;;4.57;2.10;;;;;;;;;;5034360;28;20459;-76
2021/04/09 13:47:22;;;;;;;2.97;2.10;;;;;;;;;;5035206;28;20045;-76
2021/04/09 13:49:47;;;;;;;4.63;2.20;;;;;;;;;;5018032;28;20404;-76
2021/04/09 13:52:12;;;;;;;3.63;2.13;;;;;;;;;;5035295;28;20093;-77
2021/04/09 13:54:43;;;;;;;3.93;2.13;;;;;;;;;;5017747;28;20120;-76
2021/04/09 13:57:08;;;;;;;5.38;2.28;;;;;;;;;;5035246;28;20052;-76
2021/04/09 13:59:33;;;;;;;3.67;2.20;;;;;;;;;;5035239;28;20051;-76
2021/04/09 14:01:58;;;;;;;4.90;2.13;;;;;;;;;;5035245;28;20554;-76
2021/04/09 14:04:24;;;;;;;4.37;2.30;;;;;;;;;;5034980;28;20304;-75
2021/04/09 14:06:51;;;;;;;4.20;2.00;;;;;;;;;;5013704;28;20319;-76
2021/04/09 14:09:17;;;;;;;3.35;2.22;;;;;;;;;;5015875;28;20022;-75
2021/04/09 14:11:44;;;;;;;4.50;2.00;;;;;;;;;;5024033;28;20021;-75
2021/04/09 14:14:10;;;;;;;5.72;2.05;;;;;;;;;;5031615;28;20692;-75
2021/04/09 14:16:35;;;;;;;5.33;2.50;;;;;;;;;;5018643;28;20041;-76
2021/04/09 14:19:00;;;;;;;4.10;2.10;;;;;;;;;;5029851;28;20037;-76
2021/04/09 14:21:28;;;;;;;3.57;1.97;;;;;;;;;;5027476;28;20434;-77
2021/04/09 14:23:53;;;;;;;3.95;2.38;;;;;;;;;;5025590;28;20087;-75
2021/04/09 14:26:18;;;;;;;4.20;2.03;;;;;;;;;;5023612;28;20092;-75
2021/04/09 14:28:43;;;;;;;3.80;2.00;;;;;;;;;;5027572;28;20544;-75
2021/04/09 14:31:11;;;;;;;3.97;2.10;;;;;;;;;;5014574;28;20346;-76
2021/04/09 14:33:36;;;;;;;5.63;2.17;;;;;;;;;;5013497;28;20354;-76
2021/04/09 14:36:01;;;;;;;3.93;2.20;;;;;;;;;;5014397;28;20038;-75
2021/04/09 14:38:27;;;;;;;3.88;2.13;;;;;;;;;;5029561;28;20260;-75
2021/04/09 14:40:52;;;;;;;3.75;2.22;;;;;;;;;;5022959;28;20018;-73
2021/04/09 14:43:17;;;;;;;5.57;2.30;;;;;;;;;;5023829;28;20017;-73